sensor_id;sensor_type;location;lat;lon;timestamp;temperature;humidity
55828;DHT22;41758;51.992;5.890;2024-02-23T00:00:01;9.30;71.30
55828;DHT22;41758;51.992;5.890;2024-02-23T00:02:31;9.20;71.50
55828;DHT22;41758;51.992;5.890;2024-02-23T00:04:57;9.30;71.40
55828;DHT22;41758;51.992;5.890;2024-02-23T00:07:23;9.30;71.30
55828;DHT22;41758;51.992;5.890;2024-02-23T00:09:49;9.30;71.20
55828;DHT22;41758;51.992;5.890;2024-02-23T00:12:14;9.20;71.20
55828;DHT22;41758;51.992;5.890;2024-02-23T00:14:40;9.30;70.90
55828;DHT22;41758;51.992;5.890;2024-02-23T00:17:06;9.20;70.80
55828;DHT22;41758;51.992;5.890;2024-02-23T00:19:32;9.20;70.90
55828;DHT22;41758;51.992;5.890;2024-02-23T00:21:58;9.10;71.10
55828;DHT22;41758;51.992;5.890;2024-02-23T00:24:27;9.10;71.30
55828;DHT22;41758;51.992;5.890;2024-02-23T00:26:54;9.10;71.00
55828;DHT22;41758;51.992;5.890;2024-02-23T00:29:19;9.10;71.10
55828;DHT22;41758;51.992;5.890;2024-02-23T00:31:46;9.10;71.20
55828;DHT22;41758;51.992;5.890;2024-02-23T00:34:12;9.10;71.30
55828;DHT22;41758;51.992;5.890;2024-02-23T00:36:39;9.10;71.50
55828;DHT22;41758;51.992;5.890;2024-02-23T00:39:06;9.20;71.50
55828;DHT22;41758;51.992;5.890;2024-02-23T00:41:33;9.20;71.60
55828;DHT22;41758;51.992;5.890;2024-02-23T00:43:59;9.20;71.50
55828;DHT22;41758;51.992;5.890;2024-02-23T00:46:24;9.30;71.50
55828;DHT22;41758;51.992;5.890;2024-02-23T00:48:50;9.30;71.40
55828;DHT22;41758;51.992;5.890;2024-02-23T00:51:16;9.30;71.40
55828;DHT22;41758;51.992;5.890;2024-02-23T00:53:42;9.30;71.40
55828;DHT22;41758;51.992;5.890;2024-02-23T00:56:07;9.30;71.30
55828;DHT22;41758;51.992;5.890;2024-02-23T00:58:33;9.30;70.90
55828;DHT22;41758;51.992;5.890;2024-02-23T01:00:59;9.20;71.00
55828;DHT22;41758;51.992;5.890;2024-02-23T01:03:25;9.20;71.00
55828;DHT22;41758;51.992;5.890;2024-02-23T01:05:51;9.10;71.00
55828;DHT22;41758;51.992;5.890;2024-02-23T01:08:19;9.10;71.00
55828;DHT22;41758;51.992;5.890;2024-02-23T01:10:45;9.10;71.00
55828;DHT22;41758;51.992;5.890;2024-02-23T01:13:11;9.10;71.10
55828;DHT22;41758;51.992;5.890;2024-02-23T01:15:36;9.10;71.00
55828;DHT22;41758;51.992;5.890;2024-02-23T01:18:03;9.10;71.00
55828;DHT22;41758;51.992;5.890;2024-02-23T01:20:29;9.10;71.20
55828;DHT22;41758;51.992;5.890;2024-02-23T01:22:55;9.10;71.40
55828;DHT22;41758;51.992;5.890;2024-02-23T01:25:20;9.10;71.60
55828;DHT22;41758;51.992;5.890;2024-02-23T01:27:46;9.20;71.90
55828;DHT22;41758;51.992;5.890;2024-02-23T01:30:12;9.30;72.00
55828;DHT22;41758;51.992;5.890;2024-02-23T01:32:37;9.30;71.90
55828;DHT22;41758;51.992;5.890;2024-02-23T01:35:05;9.40;71.90
55828;DHT22;41758;51.992;5.890;2024-02-23T01:37:31;9.40;71.80
55828;DHT22;41758;51.992;5.890;2024-02-23T01:39:57;9.40;71.80
55828;DHT22;41758;51.992;5.890;2024-02-23T01:42:23;9.40;71.70
55828;DHT22;41758;51.992;5.890;2024-02-23T01:44:49;9.50;71.60
55828;DHT22;41758;51.992;5.890;2024-02-23T01:47:15;9.50;71.80
55828;DHT22;41758;51.992;5.890;2024-02-23T01:49:41;9.50;71.80
55828;DHT22;41758;51.992;5.890;2024-02-23T01:52:07;9.60;71.60
55828;DHT22;41758;51.992;5.890;2024-02-23T01:54:33;9.60;71.20
55828;DHT22;41758;51.992;5.890;2024-02-23T01:57:00;9.50;71.20
55828;DHT22;41758;51.992;5.890;2024-02-23T01:59:27;9.50;71.30
55828;DHT22;41758;51.992;5.890;2024-02-23T02:01:53;9.50;71.10
55828;DHT22;41758;51.992;5.890;2024-02-23T02:04:19;9.40;70.70
55828;DHT22;41758;51.992;5.890;2024-02-23T02:06:48;9.30;70.70
55828;DHT22;41758;51.992;5.890;2024-02-23T02:09:14;9.30;70.70
55828;DHT22;41758;51.992;5.890;2024-02-23T02:11:50;9.30;70.80
55828;DHT22;41758;51.992;5.890;2024-02-23T02:14:16;9.30;70.90
55828;DHT22;41758;51.992;5.890;2024-02-23T02:16:43;9.30;70.90
55828;DHT22;41758;51.992;5.890;2024-02-23T02:19:10;9.30;71.00
55828;DHT22;41758;51.992;5.890;2024-02-23T02:21:37;9.20;71.10
55828;DHT22;41758;51.992;5.890;2024-02-23T02:24:03;9.20;71.00
55828;DHT22;41758;51.992;5.890;2024-02-23T02:26:30;9.20;71.00
55828;DHT22;41758;51.992;5.890;2024-02-23T02:28:56;9.20;70.90
55828;DHT22;41758;51.992;5.890;2024-02-23T02:31:22;9.20;70.80
55828;DHT22;41758;51.992;5.890;2024-02-23T02:33:48;9.10;70.80
55828;DHT22;41758;51.992;5.890;2024-02-23T02:36:14;9.10;70.80
55828;DHT22;41758;51.992;5.890;2024-02-23T02:38:39;9.10;70.70
55828;DHT22;41758;51.992;5.890;2024-02-23T02:41:05;9.00;70.80
55828;DHT22;41758;51.992;5.890;2024-02-23T02:43:31;9.10;70.80
55828;DHT22;41758;51.992;5.890;2024-02-23T02:45:57;9.00;71.00
55828;DHT22;41758;51.992;5.890;2024-02-23T02:48:24;9.00;71.10
55828;DHT22;41758;51.992;5.890;2024-02-23T02:50:50;9.00;71.00
55828;DHT22;41758;51.992;5.890;2024-02-23T02:53:16;9.00;71.00
55828;DHT22;41758;51.992;5.890;2024-02-23T02:55:43;9.00;71.00
55828;DHT22;41758;51.992;5.890;2024-02-23T02:58:10;9.10;71.10
55828;DHT22;41758;51.992;5.890;2024-02-23T03:00:36;9.00;71.20
55828;DHT22;41758;51.992;5.890;2024-02-23T03:03:02;9.10;71.30
55828;DHT22;41758;51.992;5.890;2024-02-23T03:05:27;9.10;71.30
55828;DHT22;41758;51.992;5.890;2024-02-23T03:07:53;9.10;71.30
55828;DHT22;41758;51.992;5.890;2024-02-23T03:10:19;9.20;71.20
55828;DHT22;41758;51.992;5.890;2024-02-23T03:12:44;9.20;71.30
55828;DHT22;41758;51.992;5.890;2024-02-23T03:15:10;9.20;71.00
55828;DHT22;41758;51.992;5.890;2024-02-23T03:17:36;9.20;71.10
55828;DHT22;41758;51.992;5.890;2024-02-23T03:20:02;9.20;71.00
55828;DHT22;41758;51.992;5.890;2024-02-23T03:22:35;9.10;70.90
55828;DHT22;41758;51.992;5.890;2024-02-23T03:25:02;9.10;70.60
55828;DHT22;41758;51.992;5.890;2024-02-23T03:27:34;9.10;70.80
55828;DHT22;41758;51.992;5.890;2024-02-23T03:30:00;9.10;70.90
55828;DHT22;41758;51.992;5.890;2024-02-23T03:32:26;9.10;71.00
55828;DHT22;41758;51.992;5.890;2024-02-23T03:34:52;9.10;71.00
55828;DHT22;41758;51.992;5.890;2024-02-23T03:37:17;9.10;70.80
55828;DHT22;41758;51.992;5.890;2024-02-23T03:39:43;9.10;70.80
55828;DHT22;41758;51.992;5.890;2024-02-23T03:42:09;9.10;71.00
55828;DHT22;41758;51.992;5.890;2024-02-23T03:44:34;9.10;71.00
55828;DHT22;41758;51.992;5.890;2024-02-23T03:47:00;9.10;70.90
55828;DHT22;41758;51.992;5.890;2024-02-23T03:49:26;9.20;70.90
55828;DHT22;41758;51.992;5.890;2024-02-23T03:51:51;9.20;71.00
55828;DHT22;41758;51.992;5.890;2024-02-23T03:54:17;9.20;70.90
55828;DHT22;41758;51.992;5.890;2024-02-23T03:56:43;9.10;70.60
55828;DHT22;41758;51.992;5.890;2024-02-23T03:59:09;9.10;70.70
55828;DHT22;41758;51.992;5.890;2024-02-23T04:01:36;9.10;70.60
55828;DHT22;41758;51.992;5.890;2024-02-23T04:04:03;9.10;70.60
55828;DHT22;41758;51.992;5.890;2024-02-23T04:06:29;9.00;70.50
55828;DHT22;41758;51.992;5.890;2024-02-23T04:08:54;9.00;70.60
55828;DHT22;41758;51.992;5.890;2024-02-23T04:11:20;9.00;70.70
55828;DHT22;41758;51.992;5.890;2024-02-23T04:13:45;9.00;70.80
55828;DHT22;41758;51.992;5.890;2024-02-23T04:16:11;9.00;71.00
55828;DHT22;41758;51.992;5.890;2024-02-23T04:18:37;9.10;70.80
55828;DHT22;41758;51.992;5.890;2024-02-23T04:21:03;9.10;70.80
55828;DHT22;41758;51.992;5.890;2024-02-23T04:23:28;9.10;70.80
55828;DHT22;41758;51.992;5.890;2024-02-23T04:25:54;9.10;70.90
55828;DHT22;41758;51.992;5.890;2024-02-23T04:28:20;9.10;70.80
55828;DHT22;41758;51.992;5.890;2024-02-23T04:30:45;9.10;70.80
55828;DHT22;41758;51.992;5.890;2024-02-23T04:33:11;9.10;70.70
55828;DHT22;41758;51.992;5.890;2024-02-23T04:35:37;9.10;70.70
55828;DHT22;41758;51.992;5.890;2024-02-23T04:38:02;9.10;70.70
55828;DHT22;41758;51.992;5.890;2024-02-23T04:40:28;9.10;70.90
55828;DHT22;41758;51.992;5.890;2024-02-23T04:42:54;9.10;71.00
55828;DHT22;41758;51.992;5.890;2024-02-23T04:45:19;9.20;70.90
55828;DHT22;41758;51.992;5.890;2024-02-23T04:47:45;9.20;70.90
55828;DHT22;41758;51.992;5.890;2024-02-23T04:50:14;9.10;70.90
55828;DHT22;41758;51.992;5.890;2024-02-23T04:52:39;9.20;70.90
55828;DHT22;41758;51.992;5.890;2024-02-23T04:55:05;9.20;70.90
55828;DHT22;41758;51.992;5.890;2024-02-23T04:57:31;9.20;70.70
55828;DHT22;41758;51.992;5.890;2024-02-23T04:59:57;9.20;70.60
55828;DHT22;41758;51.992;5.890;2024-02-23T05:02:23;9.20;70.80
55828;DHT22;41758;51.992;5.890;2024-02-23T05:04:48;9.20;70.80
55828;DHT22;41758;51.992;5.890;2024-02-23T05:07:15;9.20;70.90
55828;DHT22;41758;51.992;5.890;2024-02-23T05:09:40;9.30;71.00
55828;DHT22;41758;51.992;5.890;2024-02-23T05:12:07;9.30;70.90
55828;DHT22;41758;51.992;5.890;2024-02-23T05:14:33;9.30;70.80
55828;DHT22;41758;51.992;5.890;2024-02-23T05:16:59;9.30;71.00
55828;DHT22;41758;51.992;5.890;2024-02-23T05:19:25;9.30;71.00
55828;DHT22;41758;51.992;5.890;2024-02-23T05:21:51;9.30;70.90
55828;DHT22;41758;51.992;5.890;2024-02-23T05:24:16;9.40;70.90
55828;DHT22;41758;51.992;5.890;2024-02-23T05:26:42;9.30;70.90
55828;DHT22;41758;51.992;5.890;2024-02-23T05:29:10;9.40;71.10
55828;DHT22;41758;51.992;5.890;2024-02-23T05:31:47;9.40;71.20
55828;DHT22;41758;51.992;5.890;2024-02-23T05:34:13;9.50;70.80
55828;DHT22;41758;51.992;5.890;2024-02-23T05:36:39;9.50;71.00
55828;DHT22;41758;51.992;5.890;2024-02-23T05:39:05;9.60;71.00
55828;DHT22;41758;51.992;5.890;2024-02-23T05:41:33;9.60;70.90
55828;DHT22;41758;51.992;5.890;2024-02-23T05:43:59;9.60;71.00
55828;DHT22;41758;51.992;5.890;2024-02-23T05:46:24;9.60;70.80
55828;DHT22;41758;51.992;5.890;2024-02-23T05:48:50;9.60;70.70
55828;DHT22;41758;51.992;5.890;2024-02-23T05:51:15;9.70;70.90
55828;DHT22;41758;51.992;5.890;2024-02-23T05:53:41;9.70;70.90
55828;DHT22;41758;51.992;5.890;2024-02-23T05:56:07;9.70;70.90
55828;DHT22;41758;51.992;5.890;2024-02-23T05:58:33;9.70;70.90
55828;DHT22;41758;51.992;5.890;2024-02-23T06:00:58;9.80;70.80
55828;DHT22;41758;51.992;5.890;2024-02-23T06:03:24;9.80;70.80
55828;DHT22;41758;51.992;5.890;2024-02-23T06:05:50;9.80;70.60
55828;DHT22;41758;51.992;5.890;2024-02-23T06:08:16;9.80;70.60
55828;DHT22;41758;51.992;5.890;2024-02-23T06:10:41;9.80;70.50
55828;DHT22;41758;51.992;5.890;2024-02-23T06:13:08;9.80;70.70
55828;DHT22;41758;51.992;5.890;2024-02-23T06:15:34;9.80;70.50
55828;DHT22;41758;51.992;5.890;2024-02-23T06:18:00;9.80;70.40
55828;DHT22;41758;51.992;5.890;2024-02-23T06:20:25;9.90;70.50
55828;DHT22;41758;51.992;5.890;2024-02-23T06:22:51;9.90;70.40
55828;DHT22;41758;51.992;5.890;2024-02-23T06:25:17;9.90;70.10
55828;DHT22;41758;51.992;5.890;2024-02-23T06:27:42;9.80;70.30
55828;DHT22;41758;51.992;5.890;2024-02-23T06:30:08;9.90;70.20
55828;DHT22;41758;51.992;5.890;2024-02-23T06:32:36;9.90;70.20
55828;DHT22;41758;51.992;5.890;2024-02-23T06:35:02;9.90;70.10
55828;DHT22;41758;51.992;5.890;2024-02-23T06:37:28;9.90;70.20
55828;DHT22;41758;51.992;5.890;2024-02-23T06:39:54;9.90;70.30
55828;DHT22;41758;51.992;5.890;2024-02-23T06:42:23;9.90;70.50
55828;DHT22;41758;51.992;5.890;2024-02-23T06:44:49;10.00;70.50
55828;DHT22;41758;51.992;5.890;2024-02-23T06:47:15;10.00;70.40
55828;DHT22;41758;51.992;5.890;2024-02-23T06:49:44;10.00;70.50
55828;DHT22;41758;51.992;5.890;2024-02-23T06:52:10;10.10;70.40
55828;DHT22;41758;51.992;5.890;2024-02-23T06:54:36;10.10;70.60
55828;DHT22;41758;51.992;5.890;2024-02-23T06:57:02;10.10;70.70
55828;DHT22;41758;51.992;5.890;2024-02-23T06:59:28;10.20;70.70
55828;DHT22;41758;51.992;5.890;2024-02-23T07:01:54;10.20;70.70
55828;DHT22;41758;51.992;5.890;2024-02-23T07:04:21;10.20;70.80
55828;DHT22;41758;51.992;5.890;2024-02-23T07:06:46;10.30;70.80
55828;DHT22;41758;51.992;5.890;2024-02-23T07:09:12;10.30;70.70
55828;DHT22;41758;51.992;5.890;2024-02-23T07:11:39;10.30;70.80
55828;DHT22;41758;51.992;5.890;2024-02-23T07:14:06;10.40;70.70
55828;DHT22;41758;51.992;5.890;2024-02-23T07:16:38;10.40;70.70
55828;DHT22;41758;51.992;5.890;2024-02-23T07:19:05;10.50;70.70
55828;DHT22;41758;51.992;5.890;2024-02-23T07:21:30;10.50;70.60
55828;DHT22;41758;51.992;5.890;2024-02-23T07:23:56;10.50;70.60
55828;DHT22;41758;51.992;5.890;2024-02-23T07:26:22;10.60;70.50
55828;DHT22;41758;51.992;5.890;2024-02-23T07:28:48;10.60;70.60
55828;DHT22;41758;51.992;5.890;2024-02-23T07:31:14;10.60;70.50
55828;DHT22;41758;51.992;5.890;2024-02-23T07:33:41;10.60;69.90
55828;DHT22;41758;51.992;5.890;2024-02-23T07:36:07;10.60;69.90
55828;DHT22;41758;51.992;5.890;2024-02-23T07:38:34;10.70;70.20
55828;DHT22;41758;51.992;5.890;2024-02-23T07:41:00;10.60;70.30
55828;DHT22;41758;51.992;5.890;2024-02-23T07:43:25;10.70;70.50
55828;DHT22;41758;51.992;5.890;2024-02-23T07:45:52;10.70;70.50
55828;DHT22;41758;51.992;5.890;2024-02-23T07:48:17;10.70;70.10
55828;DHT22;41758;51.992;5.890;2024-02-23T07:50:43;10.80;70.10
55828;DHT22;41758;51.992;5.890;2024-02-23T07:53:09;10.80;70.30
55828;DHT22;41758;51.992;5.890;2024-02-23T07:55:35;10.80;70.50
55828;DHT22;41758;51.992;5.890;2024-02-23T07:58:01;10.80;70.40
55828;DHT22;41758;51.992;5.890;2024-02-23T08:00:27;10.90;70.40
55828;DHT22;41758;51.992;5.890;2024-02-23T08:02:54;10.90;70.20
55828;DHT22;41758;51.992;5.890;2024-02-23T08:05:23;10.90;70.30
55828;DHT22;41758;51.992;5.890;2024-02-23T08:07:49;11.00;70.50
55828;DHT22;41758;51.992;5.890;2024-02-23T08:10:15;11.00;70.50
55828;DHT22;41758;51.992;5.890;2024-02-23T08:12:40;11.10;70.70
55828;DHT22;41758;51.992;5.890;2024-02-23T08:15:07;11.20;70.60
55828;DHT22;41758;51.992;5.890;2024-02-23T08:17:33;11.20;70.70
55828;DHT22;41758;51.992;5.890;2024-02-23T08:19:58;11.30;70.60
55828;DHT22;41758;51.992;5.890;2024-02-23T08:22:24;11.30;70.40
55828;DHT22;41758;51.992;5.890;2024-02-23T08:24:52;11.30;70.20
55828;DHT22;41758;51.992;5.890;2024-02-23T08:27:18;11.30;70.10
55828;DHT22;41758;51.992;5.890;2024-02-23T08:29:43;11.30;70.10
55828;DHT22;41758;51.992;5.890;2024-02-23T08:32:09;11.30;70.10
55828;DHT22;41758;51.992;5.890;2024-02-23T08:34:35;11.30;70.00
55828;DHT22;41758;51.992;5.890;2024-02-23T08:37:01;11.30;70.10
55828;DHT22;41758;51.992;5.890;2024-02-23T08:39:27;11.30;70.10
55828;DHT22;41758;51.992;5.890;2024-02-23T08:41:54;11.30;70.30
55828;DHT22;41758;51.992;5.890;2024-02-23T08:44:20;11.40;70.40
55828;DHT22;41758;51.992;5.890;2024-02-23T08:46:47;11.40;70.30
55828;DHT22;41758;51.992;5.890;2024-02-23T08:49:14;11.50;70.30
55828;DHT22;41758;51.992;5.890;2024-02-23T08:51:39;11.50;70.60
55828;DHT22;41758;51.992;5.890;2024-02-23T08:54:06;11.60;70.50
55828;DHT22;41758;51.992;5.890;2024-02-23T08:56:37;11.80;70.60
55828;DHT22;41758;51.992;5.890;2024-02-23T08:59:04;11.80;69.80
55828;DHT22;41758;51.992;5.890;2024-02-23T09:01:30;11.80;69.80
55828;DHT22;41758;51.992;5.890;2024-02-23T09:03:55;11.90;70.00
55828;DHT22;41758;51.992;5.890;2024-02-23T09:06:21;11.90;69.30
55828;DHT22;41758;51.992;5.890;2024-02-23T09:08:47;11.90;69.30
55828;DHT22;41758;51.992;5.890;2024-02-23T09:11:12;11.90;69.50
55828;DHT22;41758;51.992;5.890;2024-02-23T09:13:39;11.90;69.40
55828;DHT22;41758;51.992;5.890;2024-02-23T09:16:07;11.90;68.70
55828;DHT22;41758;51.992;5.890;2024-02-23T09:18:32;11.90;69.30
55828;DHT22;41758;51.992;5.890;2024-02-23T09:20:59;11.90;69.40
55828;DHT22;41758;51.992;5.890;2024-02-23T09:23:25;11.90;69.10
55828;DHT22;41758;51.992;5.890;2024-02-23T09:25:50;11.90;69.50
55828;DHT22;41758;51.992;5.890;2024-02-23T09:28:16;12.00;69.20
55828;DHT22;41758;51.992;5.890;2024-02-23T09:30:42;12.00;68.70
55828;DHT22;41758;51.992;5.890;2024-02-23T09:33:07;11.90;68.60
55828;DHT22;41758;51.992;5.890;2024-02-23T09:35:33;11.90;68.70
55828;DHT22;41758;51.992;5.890;2024-02-23T09:37:59;11.90;68.30
55828;DHT22;41758;51.992;5.890;2024-02-23T09:40:28;11.90;67.50
55828;DHT22;41758;51.992;5.890;2024-02-23T09:42:57;11.80;68.10
55828;DHT22;41758;51.992;5.890;2024-02-23T09:45:24;11.80;68.50
55828;DHT22;41758;51.992;5.890;2024-02-23T09:47:55;11.90;68.40
55828;DHT22;41758;51.992;5.890;2024-02-23T09:50:23;11.90;68.70
55828;DHT22;41758;51.992;5.890;2024-02-23T09:52:49;11.90;69.10
55828;DHT22;41758;51.992;5.890;2024-02-23T09:55:21;12.00;69.30
55828;DHT22;41758;51.992;5.890;2024-02-23T09:57:49;12.00;69.50
55828;DHT22;41758;51.992;5.890;2024-02-23T10:00:17;12.10;68.90
55828;DHT22;41758;51.992;5.890;2024-02-23T10:02:43;12.10;69.00
55828;DHT22;41758;51.992;5.890;2024-02-23T10:05:10;12.20;68.80
55828;DHT22;41758;51.992;5.890;2024-02-23T10:07:36;12.30;68.90
55828;DHT22;41758;51.992;5.890;2024-02-23T10:10:02;12.30;68.70
55828;DHT22;41758;51.992;5.890;2024-02-23T10:12:29;12.40;69.10
55828;DHT22;41758;51.992;5.890;2024-02-23T10:14:55;12.40;68.80
55828;DHT22;41758;51.992;5.890;2024-02-23T10:17:20;12.40;68.40
55828;DHT22;41758;51.992;5.890;2024-02-23T10:19:46;12.40;67.40
55828;DHT22;41758;51.992;5.890;2024-02-23T10:22:13;12.20;67.00
55828;DHT22;41758;51.992;5.890;2024-02-23T10:24:38;12.10;67.20
55828;DHT22;41758;51.992;5.890;2024-02-23T10:27:04;11.90;67.50
55828;DHT22;41758;51.992;5.890;2024-02-23T10:29:30;11.80;67.20
55828;DHT22;41758;51.992;5.890;2024-02-23T10:31:57;11.60;68.00
55828;DHT22;41758;51.992;5.890;2024-02-23T10:34:24;11.60;68.30
55828;DHT22;41758;51.992;5.890;2024-02-23T10:36:50;11.60;68.60
55828;DHT22;41758;51.992;5.890;2024-02-23T10:39:17;11.40;67.70
55828;DHT22;41758;51.992;5.890;2024-02-23T10:41:56;11.40;68.10
55828;DHT22;41758;51.992;5.890;2024-02-23T10:44:24;11.30;68.30
55828;DHT22;41758;51.992;5.890;2024-02-23T10:46:51;11.30;68.40
55828;DHT22;41758;51.992;5.890;2024-02-23T10:49:17;11.30;68.80
55828;DHT22;41758;51.992;5.890;2024-02-23T10:51:45;11.30;69.10
55828;DHT22;41758;51.992;5.890;2024-02-23T10:54:13;11.30;69.50
55828;DHT22;41758;51.992;5.890;2024-02-23T10:56:39;11.30;69.80
55828;DHT22;41758;51.992;5.890;2024-02-23T10:59:07;11.30;69.50
55828;DHT22;41758;51.992;5.890;2024-02-23T11:01:34;11.30;69.20
55828;DHT22;41758;51.992;5.890;2024-02-23T11:04:01;11.30;68.70
55828;DHT22;41758;51.992;5.890;2024-02-23T11:06:27;11.40;69.20
55828;DHT22;41758;51.992;5.890;2024-02-23T11:08:53;11.40;68.60
55828;DHT22;41758;51.992;5.890;2024-02-23T11:11:19;11.50;68.80
55828;DHT22;41758;51.992;5.890;2024-02-23T11:13:45;11.50;68.60
55828;DHT22;41758;51.992;5.890;2024-02-23T11:16:21;11.60;68.20
55828;DHT22;41758;51.992;5.890;2024-02-23T11:18:48;11.60;67.90
55828;DHT22;41758;51.992;5.890;2024-02-23T11:21:14;11.70;68.00
55828;DHT22;41758;51.992;5.890;2024-02-23T11:23:45;11.70;68.20
55828;DHT22;41758;51.992;5.890;2024-02-23T11:26:14;11.80;68.70
55828;DHT22;41758;51.992;5.890;2024-02-23T11:28:50;11.80;68.00
55828;DHT22;41758;51.992;5.890;2024-02-23T11:31:22;11.90;67.70
55828;DHT22;41758;51.992;5.890;2024-02-23T11:33:56;11.90;67.90
55828;DHT22;41758;51.992;5.890;2024-02-23T11:36:29;12.00;67.50
55828;DHT22;41758;51.992;5.890;2024-02-23T11:38:57;12.00;67.80
55828;DHT22;41758;51.992;5.890;2024-02-23T11:41:23;12.10;67.40
55828;DHT22;41758;51.992;5.890;2024-02-23T11:43:53;12.10;67.50
55828;DHT22;41758;51.992;5.890;2024-02-23T11:46:19;12.10;67.40
55828;DHT22;41758;51.992;5.890;2024-02-23T11:48:45;12.10;67.60
55828;DHT22;41758;51.992;5.890;2024-02-23T11:51:20;12.20;67.20
55828;DHT22;41758;51.992;5.890;2024-02-23T11:53:50;12.30;66.40
55828;DHT22;41758;51.992;5.890;2024-02-23T11:56:16;12.30;66.60
55828;DHT22;41758;51.992;5.890;2024-02-23T11:58:43;12.40;66.10
55828;DHT22;41758;51.992;5.890;2024-02-23T12:01:09;12.40;66.00
55828;DHT22;41758;51.992;5.890;2024-02-23T12:03:34;12.40;65.40
55828;DHT22;41758;51.992;5.890;2024-02-23T12:06:02;12.50;65.50
55828;DHT22;41758;51.992;5.890;2024-02-23T12:08:30;12.40;66.10
55828;DHT22;41758;51.992;5.890;2024-02-23T12:10:57;12.50;65.90
55828;DHT22;41758;51.992;5.890;2024-02-23T12:13:26;12.50;66.10
55828;DHT22;41758;51.992;5.890;2024-02-23T12:15:53;12.50;66.00
55828;DHT22;41758;51.992;5.890;2024-02-23T12:18:22;12.50;66.50
55828;DHT22;41758;51.992;5.890;2024-02-23T12:21:01;12.50;66.50
55828;DHT22;41758;51.992;5.890;2024-02-23T12:23:44;12.50;65.90
55828;DHT22;41758;51.992;5.890;2024-02-23T12:26:12;12.50;65.50
55828;DHT22;41758;51.992;5.890;2024-02-23T12:28:39;12.40;65.30
55828;DHT22;41758;51.992;5.890;2024-02-23T12:31:05;12.50;65.80
55828;DHT22;41758;51.992;5.890;2024-02-23T12:33:33;12.60;66.00
55828;DHT22;41758;51.992;5.890;2024-02-23T12:36:00;12.60;65.90
55828;DHT22;41758;51.992;5.890;2024-02-23T12:38:26;12.60;65.60
55828;DHT22;41758;51.992;5.890;2024-02-23T12:40:52;12.60;65.50
55828;DHT22;41758;51.992;5.890;2024-02-23T12:43:18;12.60;65.60
55828;DHT22;41758;51.992;5.890;2024-02-23T12:45:47;12.70;65.70
55828;DHT22;41758;51.992;5.890;2024-02-23T12:48:16;12.80;66.30
55828;DHT22;41758;51.992;5.890;2024-02-23T12:50:42;12.80;66.20
55828;DHT22;41758;51.992;5.890;2024-02-23T12:55:57;13.00;65.70
55828;DHT22;41758;51.992;5.890;2024-02-23T12:58:23;13.00;65.70
55828;DHT22;41758;51.992;5.890;2024-02-23T13:00:48;13.10;65.90
55828;DHT22;41758;51.992;5.890;2024-02-23T13:03:14;13.20;65.40
55828;DHT22;41758;51.992;5.890;2024-02-23T13:05:40;13.20;64.50
55828;DHT22;41758;51.992;5.890;2024-02-23T13:08:05;13.20;64.50
55828;DHT22;41758;51.992;5.890;2024-02-23T13:10:32;13.30;63.80
55828;DHT22;41758;51.992;5.890;2024-02-23T13:12:57;13.30;63.50
55828;DHT22;41758;51.992;5.890;2024-02-23T13:15:25;13.30;64.50
55828;DHT22;41758;51.992;5.890;2024-02-23T13:17:51;13.30;64.40
55828;DHT22;41758;51.992;5.890;2024-02-23T13:20:17;13.40;63.60
55828;DHT22;41758;51.992;5.890;2024-02-23T13:22:42;13.40;63.40
55828;DHT22;41758;51.992;5.890;2024-02-23T13:25:08;13.50;64.20
55828;DHT22;41758;51.992;5.890;2024-02-23T13:27:33;13.60;64.50
55828;DHT22;41758;51.992;5.890;2024-02-23T13:29:59;13.90;65.60
55828;DHT22;41758;51.992;5.890;2024-02-23T13:32:25;14.10;62.60
55828;DHT22;41758;51.992;5.890;2024-02-23T13:34:50;14.70;63.60
55828;DHT22;41758;51.992;5.890;2024-02-23T13:37:20;15.40;63.60
55828;DHT22;41758;51.992;5.890;2024-02-23T13:39:46;16.00;62.30
55828;DHT22;41758;51.992;5.890;2024-02-23T13:42:12;16.30;60.20
55828;DHT22;41758;51.992;5.890;2024-02-23T13:44:38;16.30;57.30
55828;DHT22;41758;51.992;5.890;2024-02-23T13:47:04;16.00;56.20
55828;DHT22;41758;51.992;5.890;2024-02-23T13:49:29;15.80;58.10
55828;DHT22;41758;51.992;5.890;2024-02-23T13:51:55;15.70;58.90
55828;DHT22;41758;51.992;5.890;2024-02-23T13:54:21;15.70;59.80
55828;DHT22;41758;51.992;5.890;2024-02-23T13:56:47;15.60;58.40
55828;DHT22;41758;51.992;5.890;2024-02-23T13:59:12;15.60;59.30
55828;DHT22;41758;51.992;5.890;2024-02-23T14:01:38;15.50;58.40
55828;DHT22;41758;51.992;5.890;2024-02-23T14:04:07;15.30;59.40
55828;DHT22;41758;51.992;5.890;2024-02-23T14:06:33;15.30;59.90
55828;DHT22;41758;51.992;5.890;2024-02-23T14:08:59;15.20;60.60
55828;DHT22;41758;51.992;5.890;2024-02-23T14:11:25;15.20;59.60
55828;DHT22;41758;51.992;5.890;2024-02-23T14:13:51;15.20;60.90
55828;DHT22;41758;51.992;5.890;2024-02-23T14:16:16;15.30;61.70
55828;DHT22;41758;51.992;5.890;2024-02-23T14:18:42;15.30;62.00
55828;DHT22;41758;51.992;5.890;2024-02-23T14:21:10;15.30;61.50
55828;DHT22;41758;51.992;5.890;2024-02-23T14:23:36;15.30;59.30
55828;DHT22;41758;51.992;5.890;2024-02-23T14:26:03;15.30;59.40
55828;DHT22;41758;51.992;5.890;2024-02-23T14:28:29;15.20;60.00
55828;DHT22;41758;51.992;5.890;2024-02-23T14:30:55;15.20;58.50
55828;DHT22;41758;51.992;5.890;2024-02-23T14:33:21;15.10;58.80
55828;DHT22;41758;51.992;5.890;2024-02-23T14:35:47;15.00;57.50
55828;DHT22;41758;51.992;5.890;2024-02-23T14:38:15;14.90;56.90
55828;DHT22;41758;51.992;5.890;2024-02-23T14:40:42;14.80;58.20
55828;DHT22;41758;51.992;5.890;2024-02-23T14:43:07;14.80;59.00
55828;DHT22;41758;51.992;5.890;2024-02-23T14:45:33;14.80;59.70
55828;DHT22;41758;51.992;5.890;2024-02-23T14:47:59;14.70;60.10
55828;DHT22;41758;51.992;5.890;2024-02-23T14:50:24;14.70;60.20
55828;DHT22;41758;51.992;5.890;2024-02-23T14:52:51;14.60;60.70
55828;DHT22;41758;51.992;5.890;2024-02-23T14:55:16;14.50;60.80
55828;DHT22;41758;51.992;5.890;2024-02-23T14:57:43;14.40;61.10
55828;DHT22;41758;51.992;5.890;2024-02-23T15:00:09;14.40;61.20
55828;DHT22;41758;51.992;5.890;2024-02-23T15:02:36;14.30;60.70
55828;DHT22;41758;51.992;5.890;2024-02-23T15:05:01;14.20;60.90
55828;DHT22;41758;51.992;5.890;2024-02-23T15:07:27;14.10;59.30
55828;DHT22;41758;51.992;5.890;2024-02-23T15:09:54;13.80;59.90
55828;DHT22;41758;51.992;5.890;2024-02-23T15:12:20;13.70;60.40
55828;DHT22;41758;51.992;5.890;2024-02-23T15:14:47;13.60;61.20
55828;DHT22;41758;51.992;5.890;2024-02-23T15:17:13;13.50;61.30
55828;DHT22;41758;51.992;5.890;2024-02-23T15:19:39;13.50;62.00
55828;DHT22;41758;51.992;5.890;2024-02-23T15:22:05;13.50;62.40
55828;DHT22;41758;51.992;5.890;2024-02-23T15:24:33;13.60;62.10
55828;DHT22;41758;51.992;5.890;2024-02-23T15:26:59;13.50;62.10
55828;DHT22;41758;51.992;5.890;2024-02-23T15:29:25;13.50;62.60
55828;DHT22;41758;51.992;5.890;2024-02-23T15:31:51;13.50;62.70
55828;DHT22;41758;51.992;5.890;2024-02-23T15:34:17;13.50;62.40